Time;durP1;ratioP1;P1;durP2;ratioP2;P2;SDS_P1;SDS_P2;PMS_P1;PMS_P2;Temp;Humidity;BMP_temperature;BMP_pressure;BME280_temperature;BME280_humidity;BME280_pressure;Samples;Min_cycle;Max_cycle;Signal;HPM_P1;HPM_P2
2021/05/10 00:01:33;;;;;;;0.50;0.50;;;;;;;;;;5009192;28;20030;-72
2021/05/10 00:03:59;;;;;;;0.50;0.50;;;;;;;;;;4992869;28;20028;-72
2021/05/10 00:06:26;;;;;;;1.98;0.93;;;;;;;;;;5006507;28;20460;-72
2021/05/10 00:08:52;;;;;;;0.63;0.63;;;;;;;;;;5006029;28;20045;-72
2021/05/10 00:11:17;;;;;;;0.95;0.73;;;;;;;;;;5010267;28;20033;-72
2021/05/10 00:13:46;;;;;;;1.00;0.73;;;;;;;;;;5009950;28;20025;-72
2021/05/10 00:16:12;;;;;;;0.77;0.70;;;;;;;;;;5011344;28;20042;-73
2021/05/10 00:18:37;;;;;;;1.80;0.57;;;;;;;;;;4990325;28;20439;-72
2021/05/10 00:21:02;;;;;;;0.45;0.45;;;;;;;;;;5011804;28;20018;-72
2021/05/10 00:23:28;;;;;;;0.60;0.60;;;;;;;;;;5018799;28;20028;-72
2021/05/10 00:25:53;;;;;;;1.00;0.70;;;;;;;;;;5030660;28;20074;-72
2021/05/10 00:28:18;;;;;;;0.60;0.60;;;;;;;;;;5012392;28;20053;-72
2021/05/10 00:30:44;;;;;;;0.65;0.60;;;;;;;;;;5008450;28;20072;-73
2021/05/10 00:33:09;;;;;;;0.88;0.70;;;;;;;;;;4998907;28;20022;-72
2021/05/10 00:35:35;;;;;;;0.60;0.60;;;;;;;;;;4993146;28;20507;-72
2021/05/10 00:38:00;;;;;;;0.70;0.70;;;;;;;;;;5008730;28;20026;-73
2021/05/10 00:40:27;;;;;;;0.70;0.70;;;;;;;;;;5011105;28;20021;-73
2021/05/10 00:42:52;;;;;;;0.60;0.60;;;;;;;;;;5009186;28;20402;-73
2021/05/10 00:45:17;;;;;;;1.98;0.80;;;;;;;;;;5009213;28;20033;-72
2021/05/10 00:47:43;;;;;;;1.00;0.77;;;;;;;;;;5010808;28;20483;-72
2021/05/10 00:50:09;;;;;;;1.85;1.00;;;;;;;;;;5001863;28;20034;-73
2021/05/10 00:52:35;;;;;;;0.80;0.80;;;;;;;;;;5017266;28;20487;-73
2021/05/10 00:55:00;;;;;;;0.73;0.73;;;;;;;;;;5009631;28;20033;-73
2021/05/10 00:57:27;;;;;;;0.77;0.70;;;;;;;;;;5009665;28;20022;-73
2021/05/10 00:59:52;;;;;;;0.60;0.60;;;;;;;;;;5009748;28;20040;-73
2021/05/10 01:02:18;;;;;;;0.85;0.85;;;;;;;;;;4990291;28;20534;-73
2021/05/10 01:04:43;;;;;;;0.68;0.68;;;;;;;;;;5009202;28;20048;-73
2021/05/10 01:07:08;;;;;;;0.75;0.70;;;;;;;;;;5007413;28;20030;-73
2021/05/10 01:09:36;;;;;;;1.08;0.80;;;;;;;;;;5007224;28;20030;-73
2021/05/10 01:12:03;;;;;;;1.17;1.00;;;;;;;;;;5009416;28;20056;-73
2021/05/10 01:14:31;;;;;;;1.27;1.10;;;;;;;;;;4986387;28;20033;-73
2021/05/10 01:16:56;;;;;;;;;;;;;;;;;;5008629;28;20022;-73
2021/05/10 01:19:22;;;;;;;1.48;1.15;;;;;;;;;;5008691;28;19913;-72
2021/05/10 01:21:48;;;;;;;1.20;1.10;;;;;;;;;;5008326;28;20502;-72
2021/05/10 01:24:13;;;;;;;1.20;1.10;;;;;;;;;;5019889;28;20030;-72
2021/05/10 01:26:39;;;;;;;1.20;1.10;;;;;;;;;;5009687;28;20033;-72
2021/05/10 01:29:04;;;;;;;0.90;0.90;;;;;;;;;;5008710;28;20083;-72
2021/05/10 01:31:32;;;;;;;1.83;0.90;;;;;;;;;;4992637;28;20048;-72
2021/05/10 01:33:59;;;;;;;1.08;1.00;;;;;;;;;;5000715;28;20487;-72
2021/05/10 01:36:24;;;;;;;;;;;;;;;;;;4991124;28;20030;-72
2021/05/10 01:38:50;;;;;;;1.27;1.17;;;;;;;;;;4991949;28;19932;-72
2021/05/10 01:41:15;;;;;;;1.00;1.00;;;;;;;;;;4999152;28;20169;-72
2021/05/10 01:43:40;;;;;;;1.30;1.20;;;;;;;;;;5010276;28;20038;-72
2021/05/10 01:46:05;;;;;;;1.55;1.30;;;;;;;;;;5010020;28;20030;-72
2021/05/10 01:48:31;;;;;;;0.80;0.80;;;;;;;;;;5011189;28;20026;-73
2021/05/10 01:50:56;;;;;;;1.05;0.95;;;;;;;;;;5010028;28;20282;-73
2021/05/10 01:53:21;;;;;;;0.82;0.82;;;;;;;;;;5010285;28;20101;-72
2021/05/10 01:55:46;;;;;;;0.90;0.90;;;;;;;;;;5003476;28;20096;-73
2021/05/10 01:58:12;;;;;;;0.90;0.90;;;;;;;;;;5009100;28;20022;-73
2021/05/10 02:00:37;;;;;;;1.23;1.00;;;;;;;;;;5009481;28;20100;-73
2021/05/10 02:03:08;;;;;;;2.03;1.37;;;;;;;;;;5009423;28;20028;-73
2021/05/10 02:05:34;;;;;;;2.92;1.50;;;;;;;;;;4980863;28;20712;-73
2021/05/10 02:08:00;;;;;;;1.40;1.30;;;;;;;;;;4991138;28;20026;-73
2021/05/10 02:10:26;;;;;;;1.70;1.13;;;;;;;;;;5013694;28;20033;-73
2021/05/10 02:12:53;;;;;;;1.00;1.00;;;;;;;;;;5015964;28;20053;-73
2021/05/10 02:15:18;;;;;;;0.95;0.90;;;;;;;;;;4991523;28;20033;-73
2021/05/10 02:17:45;;;;;;;1.75;1.00;;;;;;;;;;4992331;28;20025;-73
2021/05/10 02:20:11;;;;;;;;;;;;;;;;;;5009642;28;20021;-73
2021/05/10 02:22:36;;;;;;;0.80;0.80;;;;;;;;;;5009205;28;20341;-73
2021/05/10 02:25:01;;;;;;;0.93;0.88;;;;;;;;;;5000347;28;20022;-73
2021/05/10 02:27:27;;;;;;;1.15;1.10;;;;;;;;;;5009146;28;20389;-72
2021/05/10 02:29:52;;;;;;;2.78;1.80;;;;;;;;;;4997393;28;20053;-72
2021/05/10 02:32:17;;;;;;;2.88;1.40;;;;;;;;;;5010706;28;20032;-73
2021/05/10 02:34:45;;;;;;;2.35;1.70;;;;;;;;;;5011999;28;20094;-73
2021/05/10 02:37:12;;;;;;;2.55;1.50;;;;;;;;;;4991140;28;20050;-73
2021/05/10 02:39:37;;;;;;;1.40;1.30;;;;;;;;;;5008442;28;20026;-72
2021/05/10 02:42:03;;;;;;;1.15;1.10;;;;;;;;;;4989829;28;20040;-72
2021/05/10 02:44:28;;;;;;;1.10;1.10;;;;;;;;;;4991653;28;20022;-72
2021/05/10 02:46:53;;;;;;;1.20;1.10;;;;;;;;;;5009171;28;20108;-72
2021/05/10 02:49:18;;;;;;;1.42;1.20;;;;;;;;;;5008694;28;20278;-72
2021/05/10 02:51:45;;;;;;;1.10;1.00;;;;;;;;;;4987867;28;20023;-72
2021/05/10 02:54:11;;;;;;;1.75;1.00;;;;;;;;;;5007187;28;20018;-72
2021/05/10 02:56:38;;;;;;;0.97;0.90;;;;;;;;;;4994743;28;20495;-72
2021/05/10 02:59:03;;;;;;;;;;;;;;;;;;5021247;28;20263;-73
2021/05/10 03:01:31;;;;;;;2.73;1.00;;;;;;;;;;5031519;28;19925;-73
2021/05/10 03:03:56;;;;;;;;;;;;;;;;;;5002509;28;20022;-73
2021/05/10 03:06:21;;;;;;;1.20;1.10;;;;;;;;;;4978414;28;20312;-73
2021/05/10 03:08:47;;;;;;;2.05;1.10;;;;;;;;;;4992053;28;20026;-73
2021/05/10 03:11:12;;;;;;;1.00;0.98;;;;;;;;;;4994502;28;20040;-73
2021/05/10 03:13:37;;;;;;;1.30;1.20;;;;;;;;;;5013348;28;20495;-73
2021/05/10 03:16:02;;;;;;;0.98;0.95;;;;;;;;;;5012205;28;20507;-73
2021/05/10 03:18:28;;;;;;;1.10;1.00;;;;;;;;;;5012141;28;20021;-72
2021/05/10 03:20:53;;;;;;;1.10;1.00;;;;;;;;;;5011385;28;20036;-72
2021/05/10 03:23:22;;;;;;;1.00;1.00;;;;;;;;;;5012275;28;20022;-72
2021/05/10 03:25:47;;;;;;;1.20;1.10;;;;;;;;;;5011802;28;20030;-72
2021/05/10 03:28:12;;;;;;;1.17;1.10;;;;;;;;;;5011303;28;20509;-73
2021/05/10 03:30:37;;;;;;;1.20;1.10;;;;;;;;;;5011667;28;20426;-73
2021/05/10 03:33:03;;;;;;;1.20;1.10;;;;;;;;;;4999185;28;20788;-72
2021/05/10 03:35:28;;;;;;;1.20;1.10;;;;;;;;;;5000043;28;20775;-71
2021/05/10 03:37:53;;;;;;;1.20;1.10;;;;;;;;;;5011997;28;20547;-72
2021/05/10 03:40:21;;;;;;;1.42;1.00;;;;;;;;;;4996139;28;20045;-71
2021/05/10 03:42:47;;;;;;;1.17;1.10;;;;;;;;;;5011930;28;20048;-72
2021/05/10 03:45:15;;;;;;;1.38;1.10;;;;;;;;;;5005491;28;20515;-72
2021/05/10 03:47:41;;;;;;;1.23;1.13;;;;;;;;;;5007011;28;20030;-72
2021/05/10 03:50:08;;;;;;;1.65;1.10;;;;;;;;;;5011621;28;20125;-72
2021/05/10 03:52:33;;;;;;;1.00;1.00;;;;;;;;;;5015110;28;20017;-72
2021/05/10 03:54:58;;;;;;;1.25;1.20;;;;;;;;;;5013712;28;20034;-72
2021/05/10 03:57:23;;;;;;;1.65;1.20;;;;;;;;;;5011848;28;20049;-72
2021/05/10 03:59:49;;;;;;;1.37;1.10;;;;;;;;;;5011934;28;20088;-72
2021/05/10 04:02:14;;;;;;;1.13;1.05;;;;;;;;;;4988328;28;20298;-72
2021/05/10 04:04:44;;;;;;;2.33;1.38;;;;;;;;;;5011792;28;20025;-72
2021/05/10 04:07:20;;;;;;;1.10;1.10;;;;;;;;;;4992824;28;20037;-72
2021/05/10 04:15:13;;;;;;;1.30;1.20;;;;;;;;;;5002892;28;20036;-72
2021/05/10 04:17:41;;;;;;;1.20;1.10;;;;;;;;;;4993778;28;20113;-72
2021/05/10 04:20:07;;;;;;;1.25;1.15;;;;;;;;;;4989846;28;20026;-72
2021/05/10 04:22:32;;;;;;;1.23;1.10;;;;;;;;;;5018864;28;20040;-72
2021/05/10 04:24:57;;;;;;;1.40;1.30;;;;;;;;;;5009936;28;20506;-71
2021/05/10 04:27:23;;;;;;;2.08;1.27;;;;;;;;;;5011280;28;20072;-71
2021/05/10 04:29:48;;;;;;;1.92;1.20;;;;;;;;;;4993278;28;20036;-71
2021/05/10 04:32:13;;;;;;;2.50;1.17;;;;;;;;;;5024360;28;20026;-71
2021/05/10 04:34:38;;;;;;;1.73;1.10;;;;;;;;;;4993163;28;20104;-71
2021/05/10 04:37:04;;;;;;;1.65;1.30;;;;;;;;;;5009186;28;20022;-71
2021/05/10 04:39:29;;;;;;;2.10;1.50;;;;;;;;;;5010245;28;20060;-71
2021/05/10 04:41:54;;;;;;;1.30;1.20;;;;;;;;;;4999390;28;20026;-71
2021/05/10 04:44:19;;;;;;;2.08;1.27;;;;;;;;;;5018400;28;20487;-70
2021/05/10 04:46:45;;;;;;;1.85;1.40;;;;;;;;;;4982215;28;20392;-71
2021/05/10 04:49:10;;;;;;;1.40;1.30;;;;;;;;;;5003479;28;20026;-71
2021/05/10 04:51:35;;;;;;;1.40;1.30;;;;;;;;;;4993671;28;20049;-71
2021/05/10 04:54:00;;;;;;;1.30;1.20;;;;;;;;;;4997046;28;20724;-72
2021/05/10 04:56:26;;;;;;;3.47;1.38;;;;;;;;;;4999131;28;20026;-72
2021/05/10 04:58:51;;;;;;;1.05;1.05;;;;;;;;;;5009906;28;20072;-72
2021/05/10 05:01:16;;;;;;;1.30;1.20;;;;;;;;;;5005413;28;20459;-71
2021/05/10 05:03:41;;;;;;;2.65;1.30;;;;;;;;;;5005914;28;20022;-72
2021/05/10 05:06:07;;;;;;;2.50;1.40;;;;;;;;;;5008782;28;20030;-72
2021/05/10 05:08:32;;;;;;;2.35;1.30;;;;;;;;;;5011256;28;20309;-72
2021/05/10 05:10:57;;;;;;;3.60;1.83;;;;;;;;;;4988421;28;20029;-72
2021/05/10 05:13:23;;;;;;;1.85;1.40;;;;;;;;;;5007877;28;20026;-72
2021/05/10 05:15:49;;;;;;;2.17;1.55;;;;;;;;;;5007931;28;20504;-72
2021/05/10 05:18:14;;;;;;;2.33;1.60;;;;;;;;;;5009396;28;20026;-72
2021/05/10 05:20:39;;;;;;;1.40;1.30;;;;;;;;;;5009701;28;20028;-73
2021/05/10 05:23:15;;;;;;;3.13;1.50;;;;;;;;;;5009649;28;20014;-72
2021/05/10 05:25:41;;;;;;;3.20;1.70;;;;;;;;;;5010016;28;20486;-72
2021/05/10 05:28:06;;;;;;;2.07;1.40;;;;;;;;;;5009893;28;20045;-73
2021/05/10 05:30:31;;;;;;;1.77;1.48;;;;;;;;;;5006692;28;20630;-73
2021/05/10 05:32:59;;;;;;;2.38;1.33;;;;;;;;;;4974929;28;20037;-73
2021/05/10 05:35:24;;;;;;;2.22;1.40;;;;;;;;;;4990764;28;20022;-72
2021/05/10 05:37:49;;;;;;;2.80;1.33;;;;;;;;;;4990563;28;20026;-72
2021/05/10 05:40:15;;;;;;;1.70;1.33;;;;;;;;;;4971939;28;20503;-74
2021/05/10 05:42:40;;;;;;;2.30;1.40;;;;;;;;;;4990649;28;20026;-72
2021/05/10 05:45:06;;;;;;;3.45;1.60;;;;;;;;;;4991707;28;20480;-73
2021/05/10 05:47:31;;;;;;;2.92;1.60;;;;;;;;;;4974412;28;20026;-72
2021/05/10 05:49:59;;;;;;;2.23;1.40;;;;;;;;;;4973022;28;20544;-73
2021/05/10 05:52:24;;;;;;;2.35;1.60;;;;;;;;;;4972667;28;20284;-73
2021/05/10 05:54:51;;;;;;;2.40;1.50;;;;;;;;;;4990202;28;20437;-72
2021/05/10 05:57:17;;;;;;;6.00;1.60;;;;;;;;;;4972879;28;20022;-72
2021/05/10 05:59:42;;;;;;;3.97;1.65;;;;;;;;;;4990360;28;20384;-73
2021/05/10 06:02:07;;;;;;;3.75;1.50;;;;;;;;;;4990763;28;20050;-73
2021/05/10 06:04:33;;;;;;;4.60;1.70;;;;;;;;;;4987303;28;20053;-73
2021/05/10 06:06:58;;;;;;;2.17;1.40;;;;;;;;;;4966722;28;20022;-73
2021/05/10 06:09:24;;;;;;;3.45;1.88;;;;;;;;;;4988416;28;20022;-73
2021/05/10 06:11:50;;;;;;;2.77;1.40;;;;;;;;;;4988421;28;20111;-73
2021/05/10 06:14:15;;;;;;;3.70;1.55;;;;;;;;;;4988323;28;20755;-73
2021/05/10 06:16:40;;;;;;;3.40;1.40;;;;;;;;;;4988649;28;20484;-73
2021/05/10 06:19:08;;;;;;;3.28;1.35;;;;;;;;;;4988935;28;20022;-73
2021/05/10 06:21:33;;;;;;;2.17;1.30;;;;;;;;;;4997280;28;20018;-74
2021/05/10 06:23:58;;;;;;;3.15;2.35;;;;;;;;;;5010336;28;20044;-73
2021/05/10 06:26:26;;;;;;;3.15;1.52;;;;;;;;;;4995606;28;20310;-73
2021/05/10 06:28:51;;;;;;;2.28;1.52;;;;;;;;;;4998775;28;20503;-74
2021/05/10 06:31:16;;;;;;;2.97;1.30;;;;;;;;;;4987085;28;20026;-74
2021/05/10 06:33:44;;;;;;;1.38;1.10;;;;;;;;;;4977872;28;20020;-72
2021/05/10 06:36:09;;;;;;;1.30;1.15;;;;;;;;;;4999315;28;20034;-74
2021/05/10 06:38:34;;;;;;;1.58;1.08;;;;;;;;;;4998398;28;20472;-72
2021/05/10 06:41:00;;;;;;;1.52;1.00;;;;;;;;;;5007436;28;20033;-72
2021/05/10 06:43:25;;;;;;;1.60;1.50;;;;;;;;;;4982178;28;20030;-72
2021/05/10 06:45:50;;;;;;;2.10;1.30;;;;;;;;;;5004902;28;20607;-72
2021/05/10 06:48:34;;;;;;;1.30;1.17;;;;;;;;;;4997040;28;20165;-71
2021/05/10 06:50:59;;;;;;;1.27;1.10;;;;;;;;;;5000680;28;20036;-73
2021/05/10 06:53:25;;;;;;;1.10;1.00;;;;;;;;;;5000385;28;20035;-72
2021/05/10 06:55:51;;;;;;;2.70;1.25;;;;;;;;;;5006367;28;20021;-73
2021/05/10 06:58:16;;;;;;;1.67;1.08;;;;;;;;;;4983044;28;20768;-72
2021/05/10 07:00:41;;;;;;;1.33;1.00;;;;;;;;;;4993855;28;20017;-72
2021/05/10 07:03:07;;;;;;;1.80;1.10;;;;;;;;;;4993204;28;20384;-73
2021/05/10 07:05:32;;;;;;;3.92;1.00;;;;;;;;;;5006529;28;20026;-73
2021/05/10 07:07:57;;;;;;;0.93;0.93;;;;;;;;;;5005049;28;20046;-73
2021/05/10 07:10:22;;;;;;;1.73;1.10;;;;;;;;;;4985810;28;20022;-73
2021/05/10 07:12:47;;;;;;;2.05;1.13;;;;;;;;;;4997628;28;20271;-72
2021/05/10 07:15:13;;;;;;;0.90;0.90;;;;;;;;;;4995642;28;20034;-72
2021/05/10 07:17:38;;;;;;;1.83;1.00;;;;;;;;;;5007573;28;20022;-73
2021/05/10 07:20:03;;;;;;;1.60;1.20;;;;;;;;;;5004661;28;20760;-72
2021/05/10 07:22:29;;;;;;;1.27;1.17;;;;;;;;;;4987876;28;20634;-73
2021/05/10 07:24:54;;;;;;;1.83;1.02;;;;;;;;;;4995632;28;20037;-73
2021/05/10 07:27:19;;;;;;;3.42;0.93;;;;;;;;;;5008302;28;20149;-73
2021/05/10 07:29:44;;;;;;;2.50;0.93;;;;;;;;;;5000030;28;20018;-73
2021/05/10 07:32:12;;;;;;;0.80;0.70;;;;;;;;;;4984191;28;20582;-73
2021/05/10 07:34:37;;;;;;;1.38;0.90;;;;;;;;;;4997230;28;20271;-73
2021/05/10 07:37:03;;;;;;;2.23;0.80;;;;;;;;;;4995888;28;20022;-73
2021/05/10 07:39:28;;;;;;;2.30;0.95;;;;;;;;;;4993118;28;20263;-73
2021/05/10 07:41:53;;;;;;;2.03;0.95;;;;;;;;;;5002473;28;20096;-73
2021/05/10 07:44:18;;;;;;;2.83;1.00;;;;;;;;;;4999819;28;20022;-73
2021/05/10 07:46:44;;;;;;;1.48;0.60;;;;;;;;;;4987540;28;20419;-72
2021/05/10 07:49:09;;;;;;;2.10;0.77;;;;;;;;;;4992212;28;20026;-72
2021/05/10 07:51:34;;;;;;;4.40;0.90;;;;;;;;;;4976254;28;20271;-72
2021/05/10 07:53:59;;;;;;;1.45;1.00;;;;;;;;;;4984840;28;20117;-73
2021/05/10 07:56:25;;;;;;;2.28;0.77;;;;;;;;;;5005858;28;20137;-72
2021/05/10 07:58:52;;;;;;;0.93;0.80;;;;;;;;;;5020501;28;20057;-72
2021/05/10 08:01:17;;;;;;;1.42;0.82;;;;;;;;;;5001843;28;20041;-73
2021/05/10 08:03:45;;;;;;;1.77;0.95;;;;;;;;;;4977115;28;20021;-72
2021/05/10 08:06:11;;;;;;;1.08;0.77;;;;;;;;;;5008661;28;20109;-73
2021/05/10 08:08:36;;;;;;;1.95;0.90;;;;;;;;;;5000675;28;20028;-73
2021/05/10 08:11:03;;;;;;;1.30;0.70;;;;;;;;;;5008940;28;20018;-72
2021/05/10 08:13:28;;;;;;;0.88;0.80;;;;;;;;;;4991541;28;20030;-71
2021/05/10 08:15:53;;;;;;;0.70;0.63;;;;;;;;;;5005998;28;20045;-71
2021/05/10 08:18:19;;;;;;;1.65;0.80;;;;;;;;;;4976938;28;20491;-71
2021/05/10 08:20:46;;;;;;;0.60;0.60;;;;;;;;;;5007245;28;20018;-71
2021/05/10 08:23:16;;;;;;;0.70;0.70;;;;;;;;;;5000912;28;20017;-71
2021/05/10 08:25:44;;;;;;;2.35;0.98;;;;;;;;;;4984012;28;20026;-71
2021/05/10 08:28:10;;;;;;;1.30;0.65;;;;;;;;;;4988515;28;20112;-72
2021/05/10 08:30:35;;;;;;;1.00;0.70;;;;;;;;;;5010316;28;20456;-71
2021/05/10 08:33:01;;;;;;;2.88;0.63;;;;;;;;;;5010029;28;20026;-72
2021/05/10 08:35:27;;;;;;;1.33;0.80;;;;;;;;;;5003146;28;20036;-72
2021/05/10 08:37:52;;;;;;;0.98;0.80;;;;;;;;;;4990095;28;20640;-72
2021/05/10 08:40:17;;;;;;;1.08;0.65;;;;;;;;;;5006641;28;20022;-71
2021/05/10 08:42:43;;;;;;;0.88;0.60;;;;;;;;;;4996774;28;20042;-73
2021/05/10 08:45:11;;;;;;;2.03;0.88;;;;;;;;;;5009574;28;20084;-74
2021/05/10 08:47:38;;;;;;;2.40;0.90;;;;;;;;;;5001014;28;20026;-73
2021/05/10 08:50:04;;;;;;;1.45;1.13;;;;;;;;;;4991015;28;20037;-72
2021/05/10 08:52:29;;;;;;;1.05;0.60;;;;;;;;;;4996223;28;20026;-72
2021/05/10 08:54:55;;;;;;;1.20;0.50;;;;;;;;;;4994692;28;20605;-74
2021/05/10 08:57:20;;;;;;;1.10;0.80;;;;;;;;;;5008769;28;20491;-74
2021/05/10 08:59:48;;;;;;;0.90;0.60;;;;;;;;;;4993886;28;20026;-73
2021/05/10 09:02:13;;;;;;;1.48;0.93;;;;;;;;;;4986941;28;20383;-72
2021/05/10 09:04:40;;;;;;;1.10;0.77;;;;;;;;;;4998051;28;20022;-72
2021/05/10 09:07:11;;;;;;;1.60;0.70;;;;;;;;;;4993551;28;20064;-72
2021/05/10 09:09:49;;;;;;;0.98;0.80;;;;;;;;;;5008754;28;20653;-72
2021/05/10 09:12:14;;;;;;;1.30;0.80;;;;;;;;;;4997211;28;20033;-73
2021/05/10 09:14:39;;;;;;;2.63;1.00;;;;;;;;;;5010512;28;20014;-72
2021/05/10 09:17:04;;;;;;;1.88;0.80;;;;;;;;;;5009065;28;20033;-72
2021/05/10 09:19:43;;;;;;;1.90;0.85;;;;;;;;;;5009250;28;20013;-73
2021/05/10 09:22:09;;;;;;;1.30;0.68;;;;;;;;;;4984808;28;20022;-72
2021/05/10 09:24:43;;;;;;;3.13;0.65;;;;;;;;;;4993038;28;20029;-73
2021/05/10 09:27:21;;;;;;;1.17;0.77;;;;;;;;;;4996692;28;20014;-73
2021/05/10 09:29:46;;;;;;;1.00;0.63;;;;;;;;;;4995777;28;20057;-72
2021/05/10 09:32:24;;;;;;;1.50;0.80;;;;;;;;;;4996460;28;20478;-72
2021/05/10 09:35:09;;;;;;;1.85;0.77;;;;;;;;;;4990492;28;20018;-72
2021/05/10 09:37:34;;;;;;;1.02;0.68;;;;;;;;;;4979500;28;20025;-73
2021/05/10 09:40:02;;;;;;;1.70;0.90;;;;;;;;;;4986070;28;20144;-73
2021/05/10 09:42:45;;;;;;;1.42;0.88;;;;;;;;;;4992628;28;20512;-73
2021/05/10 09:45:10;;;;;;;0.70;0.70;;;;;;;;;;5006104;28;20097;-73
2021/05/10 09:47:36;;;;;;;0.82;0.70;;;;;;;;;;5008307;28;20109;-72
2021/05/10 09:50:01;;;;;;;0.88;0.50;;;;;;;;;;5008077;28;20022;-73
2021/05/10 09:52:27;;;;;;;1.73;0.70;;;;;;;;;;5009193;28;20033;-72
2021/05/10 09:55:00;;;;;;;1.33;0.45;;;;;;;;;;5008057;28;20478;-72
2021/05/10 09:57:25;;;;;;;0.65;0.50;;;;;;;;;;5007402;28;20544;-72
2021/05/10 10:00:09;;;;;;;1.17;0.95;;;;;;;;;;5025210;28;20108;-72
2021/05/10 10:02:34;;;;;;;0.85;0.80;;;;;;;;;;5000650;28;20021;-73
2021/05/10 10:05:00;;;;;;;2.00;0.70;;;;;;;;;;5004402;28;20108;-72
2021/05/10 10:07:26;;;;;;;1.05;0.70;;;;;;;;;;5001442;28;20026;-73
2021/05/10 10:09:51;;;;;;;0.63;0.55;;;;;;;;;;4999040;28;20025;-72
2021/05/10 10:12:16;;;;;;;0.82;0.52;;;;;;;;;;4994424;28;20353;-72
2021/05/10 10:14:44;;;;;;;1.70;0.40;;;;;;;;;;5013484;28;20427;-73
2021/05/10 10:17:10;;;;;;;0.43;0.30;;;;;;;;;;5006189;28;20264;-72
2021/05/10 10:19:35;;;;;;;0.30;0.30;;;;;;;;;;4988206;28;20010;-73
2021/05/10 10:22:00;;;;;;;0.43;0.40;;;;;;;;;;4989660;28;20432;-73
2021/05/10 10:24:26;;;;;;;0.30;0.30;;;;;;;;;;5001840;28;20029;-73
2021/05/10 10:26:53;;;;;;;0.38;0.38;;;;;;;;;;4995624;28;20099;-72
2021/05/10 10:29:19;;;;;;;1.65;0.50;;;;;;;;;;5012921;28;20670;-73
2021/05/10 10:31:48;;;;;;;0.40;0.40;;;;;;;;;;5009141;28;20184;-74
2021/05/10 10:34:34;;;;;;;1.30;0.38;;;;;;;;;;4992795;28;20456;-73
2021/05/10 10:37:01;;;;;;;0.40;0.32;;;;;;;;;;4989916;28;20724;-74
2021/05/10 10:39:27;;;;;;;0.40;0.40;;;;;;;;;;4994042;28;20034;-74
2021/05/10 10:42:03;;;;;;;0.37;0.37;;;;;;;;;;5004737;28;20177;-74
2021/05/10 10:44:47;;;;;;;0.68;0.45;;;;;;;;;;5001238;28;20255;-73
2021/05/10 10:47:13;;;;;;;0.20;0.20;;;;;;;;;;4984291;28;20238;-73
2021/05/10 10:49:40;;;;;;;0.80;0.50;;;;;;;;;;4999504;28;20500;-75
2021/05/10 10:52:16;;;;;;;0.70;0.52;;;;;;;;;;5006758;28;20037;-77
2021/05/10 10:54:41;;;;;;;0.30;0.30;;;;;;;;;;4984476;28;20068;-77
2021/05/10 10:57:06;;;;;;;0.30;0.30;;;;;;;;;;4994729;28;20384;-76
2021/05/10 10:59:39;;;;;;;0.75;0.50;;;;;;;;;;5003225;28;20383;-76
2021/05/10 11:02:25;;;;;;;0.43;0.28;;;;;;;;;;5008191;28;20022;-77
2021/05/10 11:05:09;;;;;;;0.30;0.30;;;;;;;;;;4988571;28;20030;-76
2021/05/10 11:07:54;;;;;;;1.02;0.40;;;;;;;;;;4989407;28;20018;-76
2021/05/10 11:10:38;;;;;;;0.57;0.40;;;;;;;;;;4974323;28;20270;-77
2021/05/10 11:13:03;;;;;;;0.40;0.40;;;;;;;;;;4979928;28;20045;-77
2021/05/10 11:15:35;;;;;;;0.65;0.50;;;;;;;;;;4987916;28;20388;-76
2021/05/10 11:18:00;;;;;;;0.85;0.38;;;;;;;;;;5007965;28;20434;-77
2021/05/10 11:20:42;;;;;;;2.33;0.35;;;;;;;;;;5010940;28;20026;-77
2021/05/10 11:23:25;;;;;;;0.30;0.25;;;;;;;;;;5006185;28;20006;-77
2021/05/10 11:25:50;;;;;;;0.32;0.30;;;;;;;;;;4981466;28;20639;-71
2021/05/10 11:28:36;;;;;;;0.30;0.30;;;;;;;;;;5010023;28;20662;-71
2021/05/10 11:31:01;;;;;;;0.20;0.20;;;;;;;;;;5010680;28;20641;-72
2021/05/10 11:33:53;;;;;;;0.47;0.32;;;;;;;;;;5003619;28;20543;-72
2021/05/10 11:36:37;;;;;;;0.30;0.20;;;;;;;;;;4973054;28;20077;-72
2021/05/10 11:39:06;;;;;;;0.30;0.30;;;;;;;;;;4981304;28;20054;-72
2021/05/10 11:41:42;;;;;;;0.40;0.25;;;;;;;;;;5002016;28;20029;-73
2021/05/10 11:44:19;;;;;;;0.32;0.32;;;;;;;;;;5006086;28;20041;-73
2021/05/10 11:46:48;;;;;;;0.52;0.40;;;;;;;;;;5004638;28;20018;-73
2021/05/10 11:49:25;;;;;;;0.20;0.20;;;;;;;;;;5011088;28;20045;-73
2021/05/10 11:51:53;;;;;;;0.88;0.30;;;;;;;;;;5009836;28;20033;-73
2021/05/10 11:54:22;;;;;;;0.22;0.22;;;;;;;;;;4985548;28;20023;-72
2021/05/10 11:56:48;;;;;;;0.85;0.30;;;;;;;;;;4979776;28;20030;-71
2021/05/10 12:01:48;;;;;;;0.20;0.20;;;;;;;;;;5010507;28;20102;-72
2021/05/10 12:04:19;;;;;;;0.90;0.30;;;;;;;;;;4993190;28;20053;-71
2021/05/10 12:06:45;;;;;;;0.20;0.20;;;;;;;;;;5011382;28;20033;-72
2021/05/10 12:09:29;;;;;;;0.25;0.10;;;;;;;;;;5008271;28;20029;-72
2021/05/10 12:11:54;;;;;;;0.30;0.30;;;;;;;;;;5010796;28;20076;-72
2021/05/10 12:14:22;;;;;;;0.40;0.20;;;;;;;;;;5008054;28;20234;-72
2021/05/10 12:17:06;;;;;;;0.10;0.10;;;;;;;;;;4975261;28;20081;-72
2021/05/10 12:19:50;;;;;;;0.22;0.22;;;;;;;;;;4989893;28;20026;-72
2021/05/10 12:22:16;;;;;;;0.10;0.10;;;;;;;;;;5007467;28;20041;-72
2021/05/10 12:24:57;;;;;;;0.35;0.20;;;;;;;;;;4998479;28;20468;-72
2021/05/10 12:27:24;;;;;;;0.85;0.20;;;;;;;;;;5002085;28;20546;-72
2021/05/10 12:29:50;;;;;;;0.35;0.25;;;;;;;;;;5002323;28;20026;-71
2021/05/10 12:32:15;;;;;;;0.47;0.30;;;;;;;;;;4984147;28;20108;-72
2021/05/10 12:34:41;;;;;;;0.25;0.25;;;;;;;;;;4989988;28;20511;-72
2021/05/10 12:37:06;;;;;;;2.15;0.20;;;;;;;;;;4993563;28;20033;-72
2021/05/10 12:39:32;;;;;;;0.68;0.40;;;;;;;;;;5008348;28;20025;-72
2021/05/10 12:42:11;;;;;;;0.20;0.20;;;;;;;;;;4990737;28;20034;-72
2021/05/10 12:44:36;;;;;;;0.30;0.30;;;;;;;;;;5008773;28;20014;-72
2021/05/10 12:47:01;;;;;;;0.20;0.20;;;;;;;;;;5008664;28;20033;-73
2021/05/10 12:49:26;;;;;;;0.32;0.22;;;;;;;;;;5009387;28;20251;-72
2021/05/10 12:51:53;;;;;;;0.53;0.40;;;;;;;;;;4990847;28;20034;-72
2021/05/10 12:54:18;;;;;;;0.20;0.20;;;;;;;;;;4991466;28;20334;-71
2021/05/10 12:56:44;;;;;;;0.13;0.13;;;;;;;;;;5008860;28;20108;-71
2021/05/10 12:59:09;;;;;;;0.20;0.20;;;;;;;;;;5008908;28;20022;-71
2021/05/10 13:01:36;;;;;;;0.60;0.40;;;;;;;;;;5009116;28;20022;-72
2021/05/10 13:04:03;;;;;;;1.65;0.40;;;;;;;;;;5008493;28;20081;-73
2021/05/10 13:06:29;;;;;;;0.32;0.30;;;;;;;;;;5009562;28;20025;-72
2021/05/10 13:08:54;;;;;;;0.20;0.20;;;;;;;;;;4991222;28;20033;-73
2021/05/10 13:11:24;;;;;;;0.20;0.20;;;;;;;;;;5008311;28;20068;-72
2021/05/10 13:16:32;;;;;;;0.20;0.20;;;;;;;;;;5008319;28;20037;-72
2021/05/10 13:30:57;;;;;;;0.20;0.20;;;;;;;;;;5009774;28;20036;-72
2021/05/10 13:33:07;;;;;;;0.15;0.15;;;;;;;;;;5010332;28;20032;-73
2021/05/10 13:35:33;;;;;;;0.15;0.15;;;;;;;;;;5017558;28;20076;-73
2021/05/10 13:37:59;;;;;;;0.20;0.20;;;;;;;;;;5012660;28;20038;-73
2021/05/10 13:40:24;;;;;;;0.10;0.10;;;;;;;;;;5010490;28;20033;-73
2021/05/10 13:42:49;;;;;;;0.17;0.17;;;;;;;;;;4990800;28;20411;-72
2021/05/10 13:45:15;;;;;;;0.10;0.10;;;;;;;;;;5009739;28;20380;-73
2021/05/10 13:47:40;;;;;;;0.10;0.10;;;;;;;;;;5009958;28;20040;-73
2021/05/10 13:50:05;;;;;;;0.20;0.20;;;;;;;;;;5011407;28;20467;-73
2021/05/10 13:52:30;;;;;;;0.20;0.20;;;;;;;;;;5012599;28;20673;-72
2021/05/10 13:54:56;;;;;;;0.43;0.30;;;;;;;;;;5011525;28;20037;-72
2021/05/10 13:57:21;;;;;;;0.20;0.20;;;;;;;;;;4992111;28;20029;-72
2021/05/10 13:59:48;;;;;;;0.10;0.10;;;;;;;;;;4994204;28;20274;-72
2021/05/10 14:02:14;;;;;;;0.15;0.15;;;;;;;;;;5012271;28;20271;-73
2021/05/10 14:04:39;;;;;;;0.10;0.10;;;;;;;;;;4990719;28;20017;-73
2021/05/10 14:07:04;;;;;;;0.30;0.22;;;;;;;;;;5009737;28;20043;-73
2021/05/10 14:09:29;;;;;;;0.20;0.20;;;;;;;;;;4999560;28;20372;-72
2021/05/10 14:11:55;;;;;;;0.25;0.13;;;;;;;;;;5009759;28;20101;-72
2021/05/10 14:14:20;;;;;;;0.17;0.17;;;;;;;;;;5006400;28;20116;-73
2021/05/10 14:16:45;;;;;;;0.33;0.33;;;;;;;;;;5010315;28;20026;-73
2021/05/10 14:19:21;;;;;;;0.22;0.22;;;;;;;;;;5010754;28;20268;-73
2021/05/10 14:22:02;;;;;;;0.10;0.10;;;;;;;;;;5011779;28;20021;-73
2021/05/10 14:24:28;;;;;;;0.65;0.30;;;;;;;;;;5007373;28;20022;-73
2021/05/10 14:26:54;;;;;;;0.20;0.20;;;;;;;;;;4986340;28;20497;-72
2021/05/10 14:29:19;;;;;;;0.20;0.20;;;;;;;;;;4992145;28;20028;-75
2021/05/10 14:31:45;;;;;;;0.20;0.20;;;;;;;;;;5012149;28;20445;-73
2021/05/10 14:34:11;;;;;;;0.20;0.20;;;;;;;;;;5008411;28;20076;-72
2021/05/10 14:36:41;;;;;;;0.70;0.30;;;;;;;;;;5010439;28;20088;-72
2021/05/10 14:39:07;;;;;;;0.57;0.20;;;;;;;;;;4988665;28;20053;-72
2021/05/10 14:41:35;;;;;;;0.10;0.10;;;;;;;;;;5009352;28;20030;-72
2021/05/10 14:44:00;;;;;;;;;;;;;;;;;;5012150;28;20111;-72
2021/05/10 14:46:25;;;;;;;0.20;0.20;;;;;;;;;;5009263;28;19997;-73
2021/05/10 14:48:50;;;;;;;0.20;0.20;;;;;;;;;;5010965;28;20619;-73
2021/05/10 14:51:15;;;;;;;0.15;0.15;;;;;;;;;;4992317;28;20652;-72
2021/05/10 14:53:43;;;;;;;0.30;0.30;;;;;;;;;;4995829;28;20333;-71
2021/05/10 14:56:09;;;;;;;0.38;0.38;;;;;;;;;;5017009;28;20026;-72
2021/05/10 14:58:35;;;;;;;0.32;0.20;;;;;;;;;;5021876;28;20030;-72
2021/05/10 15:01:00;;;;;;;0.20;0.20;;;;;;;;;;4995259;28;20014;-72
2021/05/10 15:03:26;;;;;;;0.20;0.20;;;;;;;;;;4980654;28;20041;-73
2021/05/10 15:05:51;;;;;;;0.30;0.30;;;;;;;;;;5003377;28;20039;-72
2021/05/10 15:08:16;;;;;;;0.30;0.30;;;;;;;;;;4990167;28;20049;-72